Aurora, OR (97002)

11:43 PM PDT on October 22, 2014 (GMT -0700)
Mineral Springs View | Change Station
CLOSE
Current Station
Personal Weather Station
Location: Hubbard, OR
Elevation: 177 ft
Nearby Weather Stations
Active Advisory: Special Statement Active Notice: Record Report

Elev 177 ft 45.19 °N, 122.81 °W | Updated 3 minutes ago

Overcast
Overcast
54.3 °F
Feels Like 54.3 °F
N
0.0
Wind Variable Wind from WSW

Today
High -- | Low -- °F
--% Chance of Precip.
Yesterday
High -- | Low -- °F
Precip. -- in
7:36 AM 6:13 PM
Waning Crescent, 0% visible
Pressure 29.79 in
Visibility 10.0 miles
Clouds Overcast 5500 ft
Dew Point 54 °F
Humidity 99%
Rainfall 1.23 in
Snow Depth Not available.
UV 0 out of 12
Pollen .40 out of 12
Air Quality Not available.
Flu Activity Sporadic
METAR KUAO 230553Z AUTO 19005KT 10SM OVC055 13/12 A2979 RMK AO2 RAE42 SLP086 P0002 60016 T01280117 10144 20128 51021

More Conditions Fewer Conditions

Pressure 29.79 in
Visibility 10.0 miles
Clouds Overcast 5500 ft
Dew Point 54 °F
Humidity 99%
Rainfall 1.23 in
Snow Depth Not available.
UV 0 out of 12
Pollen .40 out of 12
Air Quality Not available.
Flu Activity Sporadic
METAR KUAO 230553Z AUTO 19005KT 10SM OVC055 13/12 A2979 RMK AO2 RAE42 SLP086 P0002 60016 T01280117 10144 20128 51021

More Conditions Fewer Conditions

10-Day Weather Forecast

Almanac

Astronomy

Oct. 22, 2014 Rise Set
Actual Time 7:36 AM PDT 6:13 PM PDT
Civil Twilight 7:06 AM PDT 6:44 PM PDT
Nautical Twilight 6:32 AM PDT 7:18 PM PDT
Astronomical Twilight 5:58 AM PDT 7:52 PM PDT
Moon 6:20 AM PDT (10/22) 5:45 PM PDT (10/22)
Length of Visible Light 11h 37m
Length of Day
10h 37m
Tomorrow will be 2m 58s shorter.
Waning Crescent, 0% of the Moon is Illuminated
Oct 23
Waning Crescent
Oct 23
New
Oct 30
First Quarter
Nov 6
Full
Nov 14
Last Quarter

Community

WunderPhotos

Upload Photos

1,764,194 photos uploaded!

Nearby

Snow Depth

Station Depth Elevation
Saddle Mountain 3 in 3250 ft
North Fork 0 in 3120 ft
Peavine Ridge 0 in 3500 ft
Clackamas Lake 0 in 3400 ft
Clear Lake 1 in 3500 ft

Earthquake Activity

City Distance Mag. Time & Date
No recent earthquake activity has been reported nearby.
Minimum magnitude displayed is 2.5.

Coastal Water Temperatures

Place Temperature
No Stations Reporting

Nearby Weather Stations